ADDS METAR Data INFO
IDs: Format: Raw Decoded Include TAF

Data at: 0229 UTC 26 Jul 2017

KSLR 260215Z AUTO 15006KT 10SM CLR 30/21 A3007 RMK AO2 T02960213
KSLR 260155Z AUTO 15005KT 10SM CLR 30/21 A3006 RMK AO2 T03040208
KSLR 260135Z AUTO 16006KT 10SM CLR 31/21 A3006 RMK AO2 T03080205
KSLR 260115Z AUTO 17006KT 10SM CLR 32/20 A3006 RMK AO2 T03160200
KSLR 260055Z AUTO 16005KT 10SM CLR 32/20 A3006 RMK AO2 T03220197
KSLR 260035Z AUTO 18005KT 10SM CLR 33/20 A3006 RMK AO2 T03280196
KSLR 260015Z AUTO 17006KT 10SM CLR 33/20 A3005 RMK AO2 T03330196
KSLR 252355Z AUTO 18006KT 10SM CLR 34/19 A3005 RMK AO2 T03370189 10346 20315
KSLR 252335Z AUTO 18008KT 10SM CLR 34/19 A3005 RMK AO2 T03400187
KSLR 252315Z AUTO 20008KT 10SM CLR 34/20 A3005 RMK AO2 T03410196
KSLR 252255Z AUTO 18010KT 10SM CLR 34/21 A3005 RMK AO2 T03420205
KSLR 252235Z AUTO 18008KT 7SM CLR 34/20 A3006 RMK AO2 T03420202
KSLR 252215Z AUTO 20007G15KT 10SM SCT048 35/21 A3006 RMK AO2 T03450208
KSLR 252155Z AUTO 17009KT 10SM SCT046 34/21 A3006 RMK AO2 T03430212
KSLR 252135Z AUTO 18008KT 10SM SCT044 34/22 A3006 RMK AO2 T03420220
KSLR 252115Z AUTO 16008KT 7SM SCT044 34/22 A3007 RMK AO2 T03400223
KSLR 252055Z AUTO 20008KT 10SM CLR 34/22 A3007 RMK AO2 T03430221
KSLR 252035Z AUTO 19008KT 10SM SCT042 SCT055 34/22 A3008 RMK AO2 T03400223
KSLR 252015Z AUTO 20009KT 7SM SCT040 SCT046 SCT055 34/23 A3008 RMK AO2 T03350225
KSLR 251955Z AUTO 16009KT 7SM SCT038 BKN046 33/23 A3009 RMK AO2 T03320228
KSLR 251935Z AUTO 19007KT 160V220 7SM BKN038 BKN047 33/23 A3010 RMK AO2 T03330231
KSLR 251915Z AUTO 20006G14KT 7SM BKN035 BKN043 BKN050 33/23 A3010 RMK AO2 T03250232
KSLR 251855Z AUTO 19009KT 10SM BKN035 BKN045 OVC050 33/23 A3011 RMK AO2 T03260231
KSLR 251835Z AUTO 18003KT 7SM SCT033 BKN039 33/23 A3011 RMK AO2 T03250229
KSLR 251815Z AUTO 21004KT 7SM SCT031 BKN039 32/23 A3011 RMK AO2 T03190234
KSLR 251755Z AUTO 21008KT 7SM BKN029 32/23 A3011 RMK AO2 T03160229 10321 20253
KSLR 251735Z AUTO 22005G14KT 7SM BKN029 32/24 A3011 RMK AO2 T03170236
KSLR 251715Z AUTO 21007KT 7SM BKN027 31/24 A3012 RMK AO2 T03070236
KSLR 251655Z AUTO 22009KT 190V250 7SM BKN025 30/24 A3012 RMK AO2 T03040235
KSLR 251635Z AUTO 23007KT 7SM BKN023 30/23 A3012 RMK AO2 T03020234
KSLR 251615Z AUTO 22010KT 7SM OVC023 30/23 A3012 RMK AO2 T02950234
KSLR 251555Z AUTO 23009KT 7SM OVC021 30/23 A3012 RMK AO2 T02960233
KSLR 251535Z AUTO 21013KT 7SM OVC019 29/24 A3012 RMK AO2 T02930236
KSLR 251515Z AUTO 22014G19KT 7SM OVC017 29/24 A3012 RMK AO2 T02910235
KSLR 251455Z AUTO 22011G16KT 7SM OVC015 28/24 A3012 RMK AO2 T02830238
KSLR 251435Z AUTO 21015KT 7SM OVC015 28/24 A3012 RMK AO2 T02810237
KSLR 251415Z AUTO 22014G17KT 7SM OVC015 28/24 A3012 RMK AO2 T02780237
KSLR 251355Z AUTO 21015G19KT 7SM BKN013 28/24 A3012 RMK AO2 T02750237
KSLR 251335Z AUTO 22012KT 7SM SCT013 27/24 A3012 RMK AO2 T02710241
KSLR 251315Z AUTO 21011KT 7SM SCT016 27/24 A3011 RMK AO2 LTG DSNT SE T02650240
KSLR 251255Z AUTO 21010KT 7SM SCT016 26/24 A3011 RMK AO2 T02610240
KSLR 251235Z AUTO 20008KT 7SM SCT016 26/24 A3011 RMK AO2 T02570238
KSLR 251215Z AUTO 19007KT 7SM SCT100 26/24 A3010 RMK AO2 T02550237
KSLR 251155Z AUTO 19007KT 7SM SCT100 25/24 A3010 RMK AO2 T02530238 10265 20245
KSLR 251135Z AUTO 19006KT 7SM CLR 25/24 A3010 RMK AO2 T02520238
KSLR 251115Z AUTO 18004KT 7SM CLR 25/24 A3009 RMK AO2 T02540239
KSLR 251055Z AUTO 18005KT 7SM CLR 25/24 A3008 RMK AO2 T02520239
KSLR 251035Z AUTO 18006KT 7SM CLR 25/24 A3008 RMK AO2 T02530240
KSLR 251015Z AUTO 17005KT 7SM CLR 25/24 A3007 RMK AO2 T02500239
KSLR 250955Z AUTO 16004KT 7SM CLR 25/24 A3006 RMK AO2 T02490238
KSLR 250935Z AUTO 13003KT 7SM CLR 25/24 A3006 RMK AO2 T02450236
KSLR 250915Z AUTO 00000KT 7SM CLR 25/24 A3006 RMK AO2 T02490235
KSLR 250855Z AUTO 15003KT 7SM CLR 25/24 A3006 RMK AO2 T02500235
KSLR 250835Z AUTO 00000KT 7SM CLR 25/24 A3004 RMK AO2 T02500235
KSLR 250815Z AUTO 00000KT 10SM CLR 25/23 A3004 RMK AO2 T02520233
KSLR 250755Z AUTO 00000KT 10SM CLR 26/24 A3004 RMK AO2 T02560235
KSLR 250735Z AUTO 18004KT 7SM CLR 26/24 A3004 RMK AO2 T02560236
KSLR 250715Z AUTO 18005KT 7SM CLR 26/24 A3004 RMK AO2 T02580238
KSLR 250655Z AUTO 17007KT 7SM CLR 26/24 A3004 RMK AO2 T02600240
KSLR 250635Z AUTO 16007KT 7SM CLR 26/25 A3004 RMK AO2 T02600245
KSLR 250615Z AUTO 16005KT 7SM CLR 26/24 A3004 RMK AO2 T02620243
KSLR 250555Z AUTO 17005KT 7SM CLR 26/24 A3004 RMK AO2 T02620243 10306 20260 403330220
KSLR 250535Z AUTO 16004KT 10SM CLR 27/24 A3004 RMK AO2 T02660240
KSLR 250515Z AUTO 17006KT 10SM CLR 27/24 A3003 RMK AO2 T02650240
KSLR 250455Z AUTO 15003KT 10SM CLR 26/24 A3003 RMK AO2 T02600239
KSLR 250435Z AUTO 15005KT 10SM CLR 26/24 A3003 RMK AO2 T02610237
KSLR 250415Z AUTO 00000KT 10SM CLR 26/24 A3002 RMK AO2 T02610238
KSLR 250355Z AUTO 13003KT 10SM CLR 27/24 A3002 RMK AO2 T02670236
KSLR 250335Z AUTO 13003KT 10SM CLR 27/24 A3002 RMK AO2 T02700236
KSLR 250315Z AUTO 13003KT 10SM CLR 27/24 A3002 RMK AO2 T02730240
KSLR 250255Z AUTO 14003KT 10SM CLR 28/24 A3001 RMK AO2 T02750240
KSLR 250235Z AUTO 17003KT 10SM CLR 28/24 A3000 RMK AO2 T02820237
KSLR 250215Z AUTO 17004KT 10SM CLR 29/24 A3000 RMK AO2 T02880236
KSLR 250155Z AUTO 16005KT 10SM CLR 29/24 A2999 RMK AO2 T02870238
KSLR 250135Z AUTO 13004KT 4SM HZ CLR 29/24 A2999 RMK AO2 T02890240
KSLR 250115Z AUTO 12004KT 5SM HZ SCT120 29/24 A2998 RMK AO2 T02870235
KSLR 250055Z AUTO 10003KT 7SM SCT120 30/23 A2998 RMK AO2 T02950231
KSLR 250035Z AUTO 13003KT 10SM SCT120 30/23 A2997 RMK AO2 T03000230
KSLR 250015Z AUTO 14005KT 10SM BKN120 30/23 A2997 RMK AO2 T02950233
KSLR 242355Z AUTO 14005KT 10SM SCT044 SCT060 BKN120 31/23 A2997 RMK AO2 T03070230 10333 20301
KSLR 242335Z AUTO 10005KT 10SM SCT050 BKN065 OVC110 31/24 A2997 RMK AO2 T03100235
KSLR 242315Z AUTO 11008KT 10SM SCT049 SCT080 BKN100 31/23 A2997 RMK AO2 T03140232
KSLR 242255Z AUTO 00000KT 10SM SCT049 33/20 A2996 RMK AO2 T03250200
KSLR 242235Z AUTO 13004KT 10SM SCT049 33/21 A2996 RMK AO2 T03320208
KSLR 242215Z AUTO 00000KT 10SM CLR 33/21 A2996 RMK AO2 T03280214
KSLR 242155Z AUTO 16003KT 10SM SCT040 SCT085 32/21 A2996 RMK AO2 T03180214
KSLR 242135Z AUTO 00000KT 10SM OVC040 33/22 A2997 RMK AO2 T03300219
KSLR 242115Z AUTO 00000KT 10SM BKN040 32/22 A2997 RMK AO2 LTG DSNT SE T03210224
KSLR 242055Z AUTO 00000KT 10SM BKN036 BKN042 BKN049 32/22 A2998 RMK AO2 LTG DSNT SE T03150223
KSLR 242035Z AUTO 21003KT 10SM SCT036 BKN042 BKN049 32/22 A2998 RMK AO2 LTG DSNT SE T03200221
KSLR 242015Z AUTO 26004KT 10SM BKN036 BKN041 BKN110 32/22 A2999 RMK AO2 T03190222
KSLR 241955Z AUTO 00000KT 7SM SCT032 BKN041 31/22 A3000 RMK AO2 T03110224
KSLR 241935Z AUTO 22007KT 10SM SCT032 32/23 A3000 RMK AO2 T03150225
KSLR 241915Z AUTO 00000KT 10SM SCT032 31/23 A3001 RMK AO2 T03120228
KSLR 241855Z AUTO 18005KT 10SM SCT032 SCT039 SCT047 31/23 A3002 RMK AO2 LTG DSNT SW T03100226
KSLR 241835Z AUTO 18006KT 10SM SCT032 31/22 A3002 RMK AO2 LTG DSNT SW T03100222
KSLR 241815Z AUTO 19007KT 10SM SCT028 SCT040 31/23 A3002 RMK AO2 T03060226
KSLR 241755Z AUTO 14003KT 10SM SCT028 30/23 A3003 RMK AO2 T03010226 10301 20227
KSLR 241735Z AUTO 15006KT 10SM CLR 30/23 A3003 RMK AO2 T02970226
KSLR 241715Z AUTO 18006KT 10SM CLR 29/22 A3003 RMK AO2 T02930223
KSLR 241655Z AUTO 19010KT 10SM CLR 29/24 A3003 RMK AO2 T02900236
KSLR 241635Z AUTO 17006KT 10SM CLR 27/24 A3004 RMK AO2 T02720235
KSLR 241615Z AUTO 18006KT 10SM CLR 28/23 A3004 RMK AO2 T02820231
KSLR 241555Z AUTO 20004KT 10SM SCT032 SCT039 27/24 A3004 RMK AO2 T02720239
KSLR 241535Z AUTO 17005KT 10SM -RA SCT032 SCT042 SCT055 27/24 A3004 RMK AO2 T02700238
KSLR 241515Z AUTO 16003KT 10SM CLR 26/23 A3003 RMK AO2 T02630232
KSLR 241455Z AUTO 16003KT 10SM CLR 26/23 A3002 RMK AO2 T02580232
KSLR 241435Z AUTO 17003KT 10SM SCT009 25/23 A3002 RMK AO2 T02530233